sensor_id;sensor_type;location;lat;lon;timestamp;P1;durP1;ratioP1;P2;durP2;ratioP2
2390;SDS011;22957;50.824;4.360;2022-12-07T00:01:40;25.50;;;11.23;;
2390;SDS011;22957;50.824;4.360;2022-12-07T00:04:08;14.47;;;10.63;;
2390;SDS011;22957;50.824;4.360;2022-12-07T00:06:41;13.57;;;9.23;;
2390;SDS011;22957;50.824;4.360;2022-12-07T00:09:13;14.63;;;10.30;;
2390;SDS011;22957;50.824;4.360;2022-12-07T00:11:40;15.43;;;9.07;;
2390;SDS011;22957;50.824;4.360;2022-12-07T00:14:07;17.77;;;9.67;;
2390;SDS011;22957;50.824;4.360;2022-12-07T00:16:36;17.87;;;10.70;;
2390;SDS011;22957;50.824;4.360;2022-12-07T00:19:03;15.80;;;10.10;;
2390;SDS011;22957;50.824;4.360;2022-12-07T00:21:30;16.53;;;10.93;;
2390;SDS011;22957;50.824;4.360;2022-12-07T00:23:57;15.57;;;12.30;;
2390;SDS011;22957;50.824;4.360;2022-12-07T00:26:25;18.33;;;10.50;;
2390;SDS011;22957;50.824;4.360;2022-12-07T00:28:54;14.70;;;10.17;;
2390;SDS011;22957;50.824;4.360;2022-12-07T00:31:23;19.20;;;12.53;;
2390;SDS011;22957;50.824;4.360;2022-12-07T00:33:50;15.70;;;10.10;;
2390;SDS011;22957;50.824;4.360;2022-12-07T00:36:17;18.93;;;11.50;;
2390;SDS011;22957;50.824;4.360;2022-12-07T00:38:45;22.13;;;11.53;;
2390;SDS011;22957;50.824;4.360;2022-12-07T00:41:12;20.20;;;12.20;;
2390;SDS011;22957;50.824;4.360;2022-12-07T00:43:42;20.00;;;11.13;;
2390;SDS011;22957;50.824;4.360;2022-12-07T00:46:09;16.47;;;10.73;;
2390;SDS011;22957;50.824;4.360;2022-12-07T00:48:35;15.60;;;11.17;;
2390;SDS011;22957;50.824;4.360;2022-12-07T00:51:02;20.53;;;12.37;;
2390;SDS011;22957;50.824;4.360;2022-12-07T00:53:28;28.83;;;12.50;;
2390;SDS011;22957;50.824;4.360;2022-12-07T00:55:54;21.53;;;12.70;;
2390;SDS011;22957;50.824;4.360;2022-12-07T00:58:21;16.90;;;11.23;;
2390;SDS011;22957;50.824;4.360;2022-12-07T01:00:47;21.73;;;11.30;;
2390;SDS011;22957;50.824;4.360;2022-12-07T01:03:14;19.27;;;10.80;;
2390;SDS011;22957;50.824;4.360;2022-12-07T01:05:48;14.57;;;9.03;;
2390;SDS011;22957;50.824;4.360;2022-12-07T01:08:18;15.93;;;9.40;;
2390;SDS011;22957;50.824;4.360;2022-12-07T01:10:44;20.80;;;11.57;;
2390;SDS011;22957;50.824;4.360;2022-12-07T01:13:09;17.30;;;10.77;;
2390;SDS011;22957;50.824;4.360;2022-12-07T01:15:38;15.53;;;8.83;;
2390;SDS011;22957;50.824;4.360;2022-12-07T01:18:08;14.13;;;10.00;;
2390;SDS011;22957;50.824;4.360;2022-12-07T01:20:34;14.23;;;10.27;;
2390;SDS011;22957;50.824;4.360;2022-12-07T01:23:00;14.67;;;10.77;;
2390;SDS011;22957;50.824;4.360;2022-12-07T01:25:26;16.20;;;11.07;;
2390;SDS011;22957;50.824;4.360;2022-12-07T01:27:51;18.20;;;10.63;;
2390;SDS011;22957;50.824;4.360;2022-12-07T01:30:17;14.87;;;10.97;;
2390;SDS011;22957;50.824;4.360;2022-12-07T01:32:43;19.30;;;11.10;;
2390;SDS011;22957;50.824;4.360;2022-12-07T01:35:08;20.70;;;9.80;;
2390;SDS011;22957;50.824;4.360;2022-12-07T01:37:38;15.57;;;10.97;;
2390;SDS011;22957;50.824;4.360;2022-12-07T01:40:04;16.67;;;10.60;;
2390;SDS011;22957;50.824;4.360;2022-12-07T01:42:31;13.03;;;9.50;;
2390;SDS011;22957;50.824;4.360;2022-12-07T01:48:01;19.63;;;11.40;;
2390;SDS011;22957;50.824;4.360;2022-12-07T01:50:27;19.03;;;12.33;;
2390;SDS011;22957;50.824;4.360;2022-12-07T01:52:56;14.93;;;9.70;;
2390;SDS011;22957;50.824;4.360;2022-12-07T01:55:27;24.10;;;12.50;;
2390;SDS011;22957;50.824;4.360;2022-12-07T01:57:53;20.10;;;10.43;;
2390;SDS011;22957;50.824;4.360;2022-12-07T02:00:20;15.30;;;10.57;;
2390;SDS011;22957;50.824;4.360;2022-12-07T02:03:04;18.43;;;12.30;;
2390;SDS011;22957;50.824;4.360;2022-12-07T02:05:31;15.23;;;10.10;;
2390;SDS011;22957;50.824;4.360;2022-12-07T02:07:58;18.10;;;9.87;;
2390;SDS011;22957;50.824;4.360;2022-12-07T02:10:26;16.90;;;10.97;;
2390;SDS011;22957;50.824;4.360;2022-12-07T02:13:08;16.60;;;10.33;;
2390;SDS011;22957;50.824;4.360;2022-12-07T02:29:20;14.10;;;9.93;;
2390;SDS011;22957;50.824;4.360;2022-12-07T02:32:07;18.37;;;9.63;;
2390;SDS011;22957;50.824;4.360;2022-12-07T02:37:48;12.70;;;7.90;;
2390;SDS011;22957;50.824;4.360;2022-12-07T02:42:50;15.67;;;8.87;;
2390;SDS011;22957;50.824;4.360;2022-12-07T02:45:23;10.60;;;8.93;;
2390;SDS011;22957;50.824;4.360;2022-12-07T02:47:53;8.80;;;7.43;;
2390;SDS011;22957;50.824;4.360;2022-12-07T02:50:23;17.63;;;10.00;;
2390;SDS011;22957;50.824;4.360;2022-12-07T02:52:49;15.60;;;8.53;;
2390;SDS011;22957;50.824;4.360;2022-12-07T02:55:15;15.00;;;9.20;;
2390;SDS011;22957;50.824;4.360;2022-12-07T03:00:17;14.93;;;9.03;;
2390;SDS011;22957;50.824;4.360;2022-12-07T03:02:55;13.70;;;8.97;;
2390;SDS011;22957;50.824;4.360;2022-12-07T03:08:08;16.10;;;9.20;;
2390;SDS011;22957;50.824;4.360;2022-12-07T03:11:02;12.13;;;7.40;;
2390;SDS011;22957;50.824;4.360;2022-12-07T03:16:32;11.20;;;8.00;;
2390;SDS011;22957;50.824;4.360;2022-12-07T03:19:03;14.30;;;7.53;;
2390;SDS011;22957;50.824;4.360;2022-12-07T03:21:42;11.17;;;7.10;;
2390;SDS011;22957;50.824;4.360;2022-12-07T03:24:15;11.43;;;7.80;;
2390;SDS011;22957;50.824;4.360;2022-12-07T03:26:47;12.57;;;8.27;;
2390;SDS011;22957;50.824;4.360;2022-12-07T03:29:20;15.03;;;7.40;;
2390;SDS011;22957;50.824;4.360;2022-12-07T03:31:59;13.37;;;7.83;;
2390;SDS011;22957;50.824;4.360;2022-12-07T03:34:39;12.70;;;6.50;;
2390;SDS011;22957;50.824;4.360;2022-12-07T03:37:16;12.33;;;6.93;;
2390;SDS011;22957;50.824;4.360;2022-12-07T03:40:02;12.17;;;8.70;;
2390;SDS011;22957;50.824;4.360;2022-12-07T03:42:35;9.30;;;7.10;;
2390;SDS011;22957;50.824;4.360;2022-12-07T03:45:04;14.13;;;7.50;;
2390;SDS011;22957;50.824;4.360;2022-12-07T03:47:32;11.03;;;7.27;;
2390;SDS011;22957;50.824;4.360;2022-12-07T03:52:42;9.47;;;6.60;;
2390;SDS011;22957;50.824;4.360;2022-12-07T03:55:26;14.00;;;8.53;;
2390;SDS011;22957;50.824;4.360;2022-12-07T03:57:55;12.10;;;8.87;;
2390;SDS011;22957;50.824;4.360;2022-12-07T04:00:27;11.33;;;7.30;;
2390;SDS011;22957;50.824;4.360;2022-12-07T04:02:54;11.60;;;6.10;;
2390;SDS011;22957;50.824;4.360;2022-12-07T04:05:21;17.63;;;8.47;;
2390;SDS011;22957;50.824;4.360;2022-12-07T04:07:47;12.53;;;6.33;;
2390;SDS011;22957;50.824;4.360;2022-12-07T04:10:12;9.00;;;6.90;;
2390;SDS011;22957;50.824;4.360;2022-12-07T04:12:38;12.87;;;6.83;;
2390;SDS011;22957;50.824;4.360;2022-12-07T04:15:04;11.70;;;7.70;;
2390;SDS011;22957;50.824;4.360;2022-12-07T04:17:30;12.57;;;7.27;;
2390;SDS011;22957;50.824;4.360;2022-12-07T04:19:56;11.40;;;6.97;;
2390;SDS011;22957;50.824;4.360;2022-12-07T04:22:22;15.70;;;9.40;;
2390;SDS011;22957;50.824;4.360;2022-12-07T04:24:47;13.50;;;8.77;;
2390;SDS011;22957;50.824;4.360;2022-12-07T04:27:13;13.43;;;8.07;;
2390;SDS011;22957;50.824;4.360;2022-12-07T04:29:39;15.40;;;8.23;;
2390;SDS011;22957;50.824;4.360;2022-12-07T04:32:04;15.00;;;9.13;;
2390;SDS011;22957;50.824;4.360;2022-12-07T04:34:30;16.60;;;9.53;;
2390;SDS011;22957;50.824;4.360;2022-12-07T04:36:56;14.13;;;8.30;;
2390;SDS011;22957;50.824;4.360;2022-12-07T04:39:24;15.57;;;9.53;;
2390;SDS011;22957;50.824;4.360;2022-12-07T04:41:53;14.57;;;9.37;;
2390;SDS011;22957;50.824;4.360;2022-12-07T04:44:20;13.67;;;8.27;;
2390;SDS011;22957;50.824;4.360;2022-12-07T04:46:46;15.30;;;9.27;;
2390;SDS011;22957;50.824;4.360;2022-12-07T04:49:12;12.83;;;7.60;;
2390;SDS011;22957;50.824;4.360;2022-12-07T04:51:39;16.77;;;7.70;;
2390;SDS011;22957;50.824;4.360;2022-12-07T04:54:05;16.30;;;9.00;;
2390;SDS011;22957;50.824;4.360;2022-12-07T04:56:31;13.30;;;8.83;;
2390;SDS011;22957;50.824;4.360;2022-12-07T04:58:57;12.80;;;7.93;;
2390;SDS011;22957;50.824;4.360;2022-12-07T05:01:23;10.87;;;7.23;;
2390;SDS011;22957;50.824;4.360;2022-12-07T05:03:50;15.30;;;8.73;;
2390;SDS011;22957;50.824;4.360;2022-12-07T05:06:16;15.63;;;8.53;;
2390;SDS011;22957;50.824;4.360;2022-12-07T05:08:42;14.87;;;7.87;;
2390;SDS011;22957;50.824;4.360;2022-12-07T05:11:09;11.00;;;7.60;;
2390;SDS011;22957;50.824;4.360;2022-12-07T05:13:55;13.77;;;8.40;;
2390;SDS011;22957;50.824;4.360;2022-12-07T05:16:22;10.97;;;6.83;;
2390;SDS011;22957;50.824;4.360;2022-12-07T05:18:48;12.07;;;7.53;;
2390;SDS011;22957;50.824;4.360;2022-12-07T05:21:13;8.87;;;6.53;;
2390;SDS011;22957;50.824;4.360;2022-12-07T05:23:39;9.70;;;7.20;;
2390;SDS011;22957;50.824;4.360;2022-12-07T05:26:05;17.30;;;7.53;;
2390;SDS011;22957;50.824;4.360;2022-12-07T05:28:30;11.07;;;8.33;;
2390;SDS011;22957;50.824;4.360;2022-12-07T05:30:56;12.80;;;7.50;;
2390;SDS011;22957;50.824;4.360;2022-12-07T05:33:22;12.80;;;7.20;;
2390;SDS011;22957;50.824;4.360;2022-12-07T05:35:48;8.40;;;7.00;;
2390;SDS011;22957;50.824;4.360;2022-12-07T05:38:13;19.00;;;8.23;;
2390;SDS011;22957;50.824;4.360;2022-12-07T05:40:39;14.03;;;7.73;;
2390;SDS011;22957;50.824;4.360;2022-12-07T05:43:05;12.47;;;7.23;;
2390;SDS011;22957;50.824;4.360;2022-12-07T05:45:31;13.70;;;8.50;;
2390;SDS011;22957;50.824;4.360;2022-12-07T05:47:56;16.50;;;8.67;;
2390;SDS011;22957;50.824;4.360;2022-12-07T05:50:22;14.73;;;7.90;;
2390;SDS011;22957;50.824;4.360;2022-12-07T05:52:48;12.23;;;8.13;;
2390;SDS011;22957;50.824;4.360;2022-12-07T05:55:14;11.13;;;6.33;;
2390;SDS011;22957;50.824;4.360;2022-12-07T05:57:40;13.60;;;8.07;;
2390;SDS011;22957;50.824;4.360;2022-12-07T06:00:25;12.27;;;6.87;;
2390;SDS011;22957;50.824;4.360;2022-12-07T06:02:51;12.37;;;6.80;;
2390;SDS011;22957;50.824;4.360;2022-12-07T06:05:17;16.03;;;7.80;;
2390;SDS011;22957;50.824;4.360;2022-12-07T06:07:42;10.30;;;7.90;;
2390;SDS011;22957;50.824;4.360;2022-12-07T06:10:09;12.50;;;7.57;;
2390;SDS011;22957;50.824;4.360;2022-12-07T06:12:35;12.53;;;6.50;;
2390;SDS011;22957;50.824;4.360;2022-12-07T06:15:03;10.13;;;5.33;;
2390;SDS011;22957;50.824;4.360;2022-12-07T06:17:29;10.93;;;7.13;;
2390;SDS011;22957;50.824;4.360;2022-12-07T06:19:55;8.67;;;5.43;;
2390;SDS011;22957;50.824;4.360;2022-12-07T06:22:20;13.10;;;6.00;;
2390;SDS011;22957;50.824;4.360;2022-12-07T06:24:46;8.50;;;5.40;;
2390;SDS011;22957;50.824;4.360;2022-12-07T06:27:12;10.20;;;5.80;;
2390;SDS011;22957;50.824;4.360;2022-12-07T06:29:38;10.13;;;6.00;;
2390;SDS011;22957;50.824;4.360;2022-12-07T06:32:04;9.00;;;5.83;;
2390;SDS011;22957;50.824;4.360;2022-12-07T06:34:30;10.47;;;6.20;;
2390;SDS011;22957;50.824;4.360;2022-12-07T06:36:56;10.50;;;6.10;;
2390;SDS011;22957;50.824;4.360;2022-12-07T06:39:23;15.03;;;6.70;;
2390;SDS011;22957;50.824;4.360;2022-12-07T06:41:50;9.77;;;5.37;;
2390;SDS011;22957;50.824;4.360;2022-12-07T06:44:17;11.17;;;4.70;;
2390;SDS011;22957;50.824;4.360;2022-12-07T06:46:43;9.27;;;6.10;;
2390;SDS011;22957;50.824;4.360;2022-12-07T06:49:10;13.00;;;5.70;;
2390;SDS011;22957;50.824;4.360;2022-12-07T06:51:35;15.50;;;6.40;;
2390;SDS011;22957;50.824;4.360;2022-12-07T06:54:05;7.90;;;4.80;;
2390;SDS011;22957;50.824;4.360;2022-12-07T06:56:35;7.93;;;5.00;;
2390;SDS011;22957;50.824;4.360;2022-12-07T06:59:00;7.73;;;5.00;;
2390;SDS011;22957;50.824;4.360;2022-12-07T07:01:27;10.00;;;5.33;;
2390;SDS011;22957;50.824;4.360;2022-12-07T07:03:53;9.07;;;4.90;;
2390;SDS011;22957;50.824;4.360;2022-12-07T07:06:19;11.17;;;6.10;;
2390;SDS011;22957;50.824;4.360;2022-12-07T07:08:44;10.30;;;5.47;;
2390;SDS011;22957;50.824;4.360;2022-12-07T07:11:11;8.83;;;6.00;;
2390;SDS011;22957;50.824;4.360;2022-12-07T07:13:37;5.43;;;4.47;;
2390;SDS011;22957;50.824;4.360;2022-12-07T07:16:03;10.50;;;5.23;;
2390;SDS011;22957;50.824;4.360;2022-12-07T07:18:30;9.70;;;5.23;;
2390;SDS011;22957;50.824;4.360;2022-12-07T07:20:55;11.73;;;6.20;;
2390;SDS011;22957;50.824;4.360;2022-12-07T07:23:21;8.00;;;5.40;;
2390;SDS011;22957;50.824;4.360;2022-12-07T07:25:48;12.00;;;7.73;;
2390;SDS011;22957;50.824;4.360;2022-12-07T07:28:14;12.57;;;6.80;;
2390;SDS011;22957;50.824;4.360;2022-12-07T07:30:40;14.10;;;7.40;;
2390;SDS011;22957;50.824;4.360;2022-12-07T07:33:06;13.03;;;7.90;;
2390;SDS011;22957;50.824;4.360;2022-12-07T07:35:32;12.00;;;7.00;;
2390;SDS011;22957;50.824;4.360;2022-12-07T07:37:59;13.40;;;7.20;;
2390;SDS011;22957;50.824;4.360;2022-12-07T07:40:25;17.80;;;8.13;;
2390;SDS011;22957;50.824;4.360;2022-12-07T07:42:53;12.60;;;7.03;;
2390;SDS011;22957;50.824;4.360;2022-12-07T07:45:21;13.47;;;6.93;;
2390;SDS011;22957;50.824;4.360;2022-12-07T07:47:48;15.73;;;7.63;;
2390;SDS011;22957;50.824;4.360;2022-12-07T07:50:14;47.13;;;21.23;;
2390;SDS011;22957;50.824;4.360;2022-12-07T07:52:41;10.53;;;7.10;;
2390;SDS011;22957;50.824;4.360;2022-12-07T07:55:07;12.70;;;8.07;;
2390;SDS011;22957;50.824;4.360;2022-12-07T07:57:34;11.03;;;5.70;;
2390;SDS011;22957;50.824;4.360;2022-12-07T08:00:00;10.37;;;6.50;;
2390;SDS011;22957;50.824;4.360;2022-12-07T08:02:26;8.50;;;6.10;;
2390;SDS011;22957;50.824;4.360;2022-12-07T08:04:54;11.30;;;6.67;;
2390;SDS011;22957;50.824;4.360;2022-12-07T08:07:20;15.53;;;6.00;;
2390;SDS011;22957;50.824;4.360;2022-12-07T08:09:46;10.93;;;5.73;;
2390;SDS011;22957;50.824;4.360;2022-12-07T08:12:12;15.37;;;7.60;;
2390;SDS011;22957;50.824;4.360;2022-12-07T08:14:37;8.60;;;6.27;;
2390;SDS011;22957;50.824;4.360;2022-12-07T08:17:03;13.47;;;7.97;;
2390;SDS011;22957;50.824;4.360;2022-12-07T08:19:29;12.20;;;7.77;;
2390;SDS011;22957;50.824;4.360;2022-12-07T08:21:59;13.53;;;5.93;;
2390;SDS011;22957;50.824;4.360;2022-12-07T08:24:25;12.97;;;6.83;;
2390;SDS011;22957;50.824;4.360;2022-12-07T08:26:52;10.30;;;6.90;;
2390;SDS011;22957;50.824;4.360;2022-12-07T08:29:17;10.77;;;6.60;;
2390;SDS011;22957;50.824;4.360;2022-12-07T08:31:43;15.37;;;6.73;;
2390;SDS011;22957;50.824;4.360;2022-12-07T08:34:12;14.00;;;7.37;;
2390;SDS011;22957;50.824;4.360;2022-12-07T08:36:39;13.13;;;7.27;;
2390;SDS011;22957;50.824;4.360;2022-12-07T08:39:05;25.03;;;10.47;;
2390;SDS011;22957;50.824;4.360;2022-12-07T08:41:31;12.63;;;8.77;;
2390;SDS011;22957;50.824;4.360;2022-12-07T08:43:57;10.90;;;6.83;;
2390;SDS011;22957;50.824;4.360;2022-12-07T08:46:24;15.67;;;7.73;;
2390;SDS011;22957;50.824;4.360;2022-12-07T08:49:07;10.60;;;5.70;;
2390;SDS011;22957;50.824;4.360;2022-12-07T08:51:43;10.40;;;7.00;;
2390;SDS011;22957;50.824;4.360;2022-12-07T08:54:10;12.77;;;6.97;;
2390;SDS011;22957;50.824;4.360;2022-12-07T08:56:37;12.37;;;7.70;;
2390;SDS011;22957;50.824;4.360;2022-12-07T08:59:04;13.50;;;7.67;;
2390;SDS011;22957;50.824;4.360;2022-12-07T09:01:30;14.30;;;7.77;;
2390;SDS011;22957;50.824;4.360;2022-12-07T09:03:57;18.80;;;7.13;;
2390;SDS011;22957;50.824;4.360;2022-12-07T09:06:23;18.37;;;8.90;;
2390;SDS011;22957;50.824;4.360;2022-12-07T09:08:50;16.60;;;8.00;;
2390;SDS011;22957;50.824;4.360;2022-12-07T09:11:19;13.83;;;5.63;;
2390;SDS011;22957;50.824;4.360;2022-12-07T09:13:45;10.17;;;5.80;;
2390;SDS011;22957;50.824;4.360;2022-12-07T09:16:11;10.13;;;5.20;;
2390;SDS011;22957;50.824;4.360;2022-12-07T09:18:37;9.23;;;5.80;;
2390;SDS011;22957;50.824;4.360;2022-12-07T09:21:03;15.90;;;6.07;;
2390;SDS011;22957;50.824;4.360;2022-12-07T09:23:29;10.33;;;5.27;;
2390;SDS011;22957;50.824;4.360;2022-12-07T09:25:58;12.10;;;5.33;;
2390;SDS011;22957;50.824;4.360;2022-12-07T09:28:31;10.50;;;4.80;;
2390;SDS011;22957;50.824;4.360;2022-12-07T09:30:57;12.20;;;4.80;;
2390;SDS011;22957;50.824;4.360;2022-12-07T09:33:23;16.53;;;6.10;;
2390;SDS011;22957;50.824;4.360;2022-12-07T09:35:49;14.07;;;7.27;;
2390;SDS011;22957;50.824;4.360;2022-12-07T09:38:16;12.93;;;6.27;;
2390;SDS011;22957;50.824;4.360;2022-12-07T09:40:43;11.23;;;5.03;;
2390;SDS011;22957;50.824;4.360;2022-12-07T09:43:19;15.33;;;7.10;;
2390;SDS011;22957;50.824;4.360;2022-12-07T09:45:50;14.27;;;7.10;;
2390;SDS011;22957;50.824;4.360;2022-12-07T09:48:20;11.90;;;6.17;;
2390;SDS011;22957;50.824;4.360;2022-12-07T09:50:48;9.77;;;5.63;;
2390;SDS011;22957;50.824;4.360;2022-12-07T09:53:34;17.20;;;6.40;;
2390;SDS011;22957;50.824;4.360;2022-12-07T09:56:03;13.57;;;6.07;;
2390;SDS011;22957;50.824;4.360;2022-12-07T09:58:30;10.50;;;5.40;;
2390;SDS011;22957;50.824;4.360;2022-12-07T10:03:33;7.83;;;5.40;;
2390;SDS011;22957;50.824;4.360;2022-12-07T10:06:02;10.83;;;5.10;;
2390;SDS011;22957;50.824;4.360;2022-12-07T10:08:29;10.83;;;5.90;;
2390;SDS011;22957;50.824;4.360;2022-12-07T10:10:55;15.13;;;5.67;;
2390;SDS011;22957;50.824;4.360;2022-12-07T10:13:33;9.07;;;4.53;;
2390;SDS011;22957;50.824;4.360;2022-12-07T10:16:00;8.37;;;5.20;;
2390;SDS011;22957;50.824;4.360;2022-12-07T10:23:37;10.30;;;4.73;;
2390;SDS011;22957;50.824;4.360;2022-12-07T10:28:52;12.80;;;7.07;;
2390;SDS011;22957;50.824;4.360;2022-12-07T10:31:19;15.80;;;6.57;;
2390;SDS011;22957;50.824;4.360;2022-12-07T10:33:49;10.63;;;5.30;;
2390;SDS011;22957;50.824;4.360;2022-12-07T10:36:21;10.50;;;5.20;;
2390;SDS011;22957;50.824;4.360;2022-12-07T10:38:51;14.83;;;6.60;;
2390;SDS011;22957;50.824;4.360;2022-12-07T10:41:17;13.30;;;5.77;;
2390;SDS011;22957;50.824;4.360;2022-12-07T10:43:54;13.17;;;6.13;;
2390;SDS011;22957;50.824;4.360;2022-12-07T10:51:37;14.97;;;6.40;;
2390;SDS011;22957;50.824;4.360;2022-12-07T10:57:07;11.27;;;4.77;;
2390;SDS011;22957;50.824;4.360;2022-12-07T10:59:58;10.23;;;4.40;;
2390;SDS011;22957;50.824;4.360;2022-12-07T11:26:04;7.43;;;3.40;;
2390;SDS011;22957;50.824;4.360;2022-12-07T11:37:38;9.27;;;3.20;;
2390;SDS011;22957;50.824;4.360;2022-12-07T11:45:31;13.97;;;4.03;;
2390;SDS011;22957;50.824;4.360;2022-12-07T11:48:03;10.67;;;4.60;;
2390;SDS011;22957;50.824;4.360;2022-12-07T11:53:17;12.40;;;4.30;;
2390;SDS011;22957;50.824;4.360;2022-12-07T11:55:57;7.83;;;3.10;;
2390;SDS011;22957;50.824;4.360;2022-12-07T11:58:37;14.33;;;3.90;;
2390;SDS011;22957;50.824;4.360;2022-12-07T12:06:36;8.70;;;4.27;;
2390;SDS011;22957;50.824;4.360;2022-12-07T12:12:01;10.07;;;4.40;;
2390;SDS011;22957;50.824;4.360;2022-12-07T12:17:11;6.47;;;2.30;;
2390;SDS011;22957;50.824;4.360;2022-12-07T12:19:42;9.67;;;2.57;;
2390;SDS011;22957;50.824;4.360;2022-12-07T12:22:26;5.90;;;2.10;;
2390;SDS011;22957;50.824;4.360;2022-12-07T12:25:31;7.03;;;3.03;;
2390;SDS011;22957;50.824;4.360;2022-12-07T12:28:03;5.47;;;2.47;;
2390;SDS011;22957;50.824;4.360;2022-12-07T12:30:36;4.20;;;1.60;;
2390;SDS011;22957;50.824;4.360;2022-12-07T12:33:20;8.77;;;1.97;;
2390;SDS011;22957;50.824;4.360;2022-12-07T12:51:42;6.30;;;1.90;;
2390;SDS011;22957;50.824;4.360;2022-12-07T12:59:38;6.50;;;1.97;;
2390;SDS011;22957;50.824;4.360;2022-12-07T13:20:53;5.13;;;1.70;;
2390;SDS011;22957;50.824;4.360;2022-12-07T13:24:10;5.30;;;1.80;;
2390;SDS011;22957;50.824;4.360;2022-12-07T13:31:36;6.67;;;2.17;;
2390;SDS011;22957;50.824;4.360;2022-12-07T13:37:04;3.23;;;1.43;;
2390;SDS011;22957;50.824;4.360;2022-12-07T13:39:51;5.77;;;2.37;;
2390;SDS011;22957;50.824;4.360;2022-12-07T13:44:51;8.57;;;2.50;;
2390;SDS011;22957;50.824;4.360;2022-12-07T13:49:52;5.93;;;1.83;;
2390;SDS011;22957;50.824;4.360;2022-12-07T13:52:21;5.93;;;2.20;;
2390;SDS011;22957;50.824;4.360;2022-12-07T13:54:48;9.50;;;1.87;;
2390;SDS011;22957;50.824;4.360;2022-12-07T13:57:21;5.77;;;2.13;;
2390;SDS011;22957;50.824;4.360;2022-12-07T13:59:49;7.10;;;1.80;;
2390;SDS011;22957;50.824;4.360;2022-12-07T14:02:19;5.27;;;2.30;;
2390;SDS011;22957;50.824;4.360;2022-12-07T14:04:48;7.60;;;2.70;;
2390;SDS011;22957;50.824;4.360;2022-12-07T14:09:57;6.20;;;1.93;;
2390;SDS011;22957;50.824;4.360;2022-12-07T14:12:26;4.43;;;1.70;;
2390;SDS011;22957;50.824;4.360;2022-12-07T14:28:24;4.03;;;1.60;;
2390;SDS011;22957;50.824;4.360;2022-12-07T14:31:41;6.50;;;2.00;;
2390;SDS011;22957;50.824;4.360;2022-12-07T14:34:11;4.33;;;1.43;;
2390;SDS011;22957;50.824;4.360;2022-12-07T14:36:39;2.17;;;1.40;;
2390;SDS011;22957;50.824;4.360;2022-12-07T14:39:18;5.00;;;2.43;;
2390;SDS011;22957;50.824;4.360;2022-12-07T14:42:26;2.70;;;0.80;;
2390;SDS011;22957;50.824;4.360;2022-12-07T14:45:14;3.50;;;0.90;;
2390;SDS011;22957;50.824;4.360;2022-12-07T14:47:51;4.03;;;0.97;;
2390;SDS011;22957;50.824;4.360;2022-12-07T14:54:24;3.93;;;1.10;;
2390;SDS011;22957;50.824;4.360;2022-12-07T14:57:44;3.37;;;1.03;;
2390;SDS011;22957;50.824;4.360;2022-12-07T15:00:21;3.80;;;1.07;;
2390;SDS011;22957;50.824;4.360;2022-12-07T15:02:54;1.50;;;1.00;;
2390;SDS011;22957;50.824;4.360;2022-12-07T15:05:22;5.17;;;1.30;;
2390;SDS011;22957;50.824;4.360;2022-12-07T15:07:48;2.13;;;1.10;;
2390;SDS011;22957;50.824;4.360;2022-12-07T15:10:18;5.67;;;1.30;;
2390;SDS011;22957;50.824;4.360;2022-12-07T15:13:06;3.67;;;1.30;;
2390;SDS011;22957;50.824;4.360;2022-12-07T15:15:52;6.47;;;1.50;;
2390;SDS011;22957;50.824;4.360;2022-12-07T15:18:21;3.77;;;1.57;;
2390;SDS011;22957;50.824;4.360;2022-12-07T15:20:50;2.00;;;1.23;;
2390;SDS011;22957;50.824;4.360;2022-12-07T15:23:19;8.87;;;2.83;;
2390;SDS011;22957;50.824;4.360;2022-12-07T15:25:58;5.03;;;1.43;;
2390;SDS011;22957;50.824;4.360;2022-12-07T15:28:25;3.43;;;1.50;;
2390;SDS011;22957;50.824;4.360;2022-12-07T15:31:11;4.63;;;1.43;;
2390;SDS011;22957;50.824;4.360;2022-12-07T15:33:39;7.87;;;1.57;;
2390;SDS011;22957;50.824;4.360;2022-12-07T15:36:06;4.03;;;1.50;;
2390;SDS011;22957;50.824;4.360;2022-12-07T15:38:34;5.67;;;1.50;;
2390;SDS011;22957;50.824;4.360;2022-12-07T15:41:00;6.83;;;2.00;;
2390;SDS011;22957;50.824;4.360;2022-12-07T15:43:27;6.63;;;1.80;;
2390;SDS011;22957;50.824;4.360;2022-12-07T15:46:11;4.33;;;1.80;;
2390;SDS011;22957;50.824;4.360;2022-12-07T15:48:39;4.80;;;1.70;;
2390;SDS011;22957;50.824;4.360;2022-12-07T15:51:08;5.73;;;2.23;;
2390;SDS011;22957;50.824;4.360;2022-12-07T15:53:34;6.60;;;1.80;;
2390;SDS011;22957;50.824;4.360;2022-12-07T15:56:01;5.90;;;2.47;;
2390;SDS011;22957;50.824;4.360;2022-12-07T15:58:30;7.73;;;2.80;;
2390;SDS011;22957;50.824;4.360;2022-12-07T16:00:56;10.87;;;2.83;;
2390;SDS011;22957;50.824;4.360;2022-12-07T16:03:22;5.30;;;2.33;;
2390;SDS011;22957;50.824;4.360;2022-12-07T16:05:51;6.60;;;3.70;;
2390;SDS011;22957;50.824;4.360;2022-12-07T16:08:18;6.17;;;2.47;;
2390;SDS011;22957;50.824;4.360;2022-12-07T16:10:44;8.73;;;3.40;;
2390;SDS011;22957;50.824;4.360;2022-12-07T16:13:10;6.10;;;3.00;;
2390;SDS011;22957;50.824;4.360;2022-12-07T16:15:40;9.00;;;3.37;;
2390;SDS011;22957;50.824;4.360;2022-12-07T16:18:06;8.03;;;3.43;;
2390;SDS011;22957;50.824;4.360;2022-12-07T16:20:32;4.67;;;3.10;;
2390;SDS011;22957;50.824;4.360;2022-12-07T16:22:58;8.07;;;3.60;;
2390;SDS011;22957;50.824;4.360;2022-12-07T16:25:24;10.33;;;2.93;;
2390;SDS011;22957;50.824;4.360;2022-12-07T16:27:50;5.00;;;2.20;;
2390;SDS011;22957;50.824;4.360;2022-12-07T16:30:17;7.40;;;3.70;;
2390;SDS011;22957;50.824;4.360;2022-12-07T16:32:43;5.00;;;2.53;;
2390;SDS011;22957;50.824;4.360;2022-12-07T16:35:09;7.23;;;3.20;;
2390;SDS011;22957;50.824;4.360;2022-12-07T16:37:38;6.77;;;3.60;;
2390;SDS011;22957;50.824;4.360;2022-12-07T16:40:04;11.67;;;5.27;;
2390;SDS011;22957;50.824;4.360;2022-12-07T16:42:34;11.23;;;4.23;;
2390;SDS011;22957;50.824;4.360;2022-12-07T16:45:00;5.03;;;3.20;;
2390;SDS011;22957;50.824;4.360;2022-12-07T16:47:26;7.50;;;3.27;;
2390;SDS011;22957;50.824;4.360;2022-12-07T16:49:52;10.97;;;3.80;;
2390;SDS011;22957;50.824;4.360;2022-12-07T16:52:18;10.70;;;4.50;;
2390;SDS011;22957;50.824;4.360;2022-12-07T16:54:45;8.40;;;3.80;;
2390;SDS011;22957;50.824;4.360;2022-12-07T16:57:11;5.63;;;3.30;;
2390;SDS011;22957;50.824;4.360;2022-12-07T16:59:37;11.10;;;4.87;;
2390;SDS011;22957;50.824;4.360;2022-12-07T17:02:03;10.13;;;4.00;;
2390;SDS011;22957;50.824;4.360;2022-12-07T17:04:29;5.30;;;2.83;;
2390;SDS011;22957;50.824;4.360;2022-12-07T17:06:55;6.17;;;2.90;;
2390;SDS011;22957;50.824;4.360;2022-12-07T17:09:23;6.43;;;3.40;;
2390;SDS011;22957;50.824;4.360;2022-12-07T17:11:53;8.37;;;4.40;;
2390;SDS011;22957;50.824;4.360;2022-12-07T17:14:18;6.27;;;3.60;;
2390;SDS011;22957;50.824;4.360;2022-12-07T17:17:02;5.43;;;3.20;;
2390;SDS011;22957;50.824;4.360;2022-12-07T17:19:29;6.50;;;3.53;;
2390;SDS011;22957;50.824;4.360;2022-12-07T17:21:55;5.50;;;3.47;;
2390;SDS011;22957;50.824;4.360;2022-12-07T17:24:20;9.30;;;3.50;;
2390;SDS011;22957;50.824;4.360;2022-12-07T17:26:46;5.67;;;3.80;;
2390;SDS011;22957;50.824;4.360;2022-12-07T17:29:14;8.40;;;4.90;;
2390;SDS011;22957;50.824;4.360;2022-12-07T17:31:41;14.10;;;5.37;;
2390;SDS011;22957;50.824;4.360;2022-12-07T17:34:11;7.03;;;4.23;;
2390;SDS011;22957;50.824;4.360;2022-12-07T17:36:38;9.57;;;4.80;;
2390;SDS011;22957;50.824;4.360;2022-12-07T17:39:09;9.60;;;4.60;;
2390;SDS011;22957;50.824;4.360;2022-12-07T17:41:36;12.80;;;6.17;;
2390;SDS011;22957;50.824;4.360;2022-12-07T17:44:21;18.13;;;7.20;;
2390;SDS011;22957;50.824;4.360;2022-12-07T17:46:48;11.43;;;5.90;;
2390;SDS011;22957;50.824;4.360;2022-12-07T17:49:22;9.77;;;5.30;;
2390;SDS011;22957;50.824;4.360;2022-12-07T17:51:48;11.63;;;5.90;;
2390;SDS011;22957;50.824;4.360;2022-12-07T17:54:33;11.60;;;5.60;;
2390;SDS011;22957;50.824;4.360;2022-12-07T17:56:59;10.80;;;6.40;;
2390;SDS011;22957;50.824;4.360;2022-12-07T17:59:25;14.17;;;5.63;;
2390;SDS011;22957;50.824;4.360;2022-12-07T18:01:51;13.10;;;7.33;;